sensor_id;sensor_type;location;lat;lon;timestamp;temperature;humidity
41720;DHT22;27405;53.316;-6.294;2023-02-19T00:01:33;10.20;99.90
41720;DHT22;27405;53.316;-6.294;2023-02-19T00:04:01;10.20;99.90
41720;DHT22;27405;53.316;-6.294;2023-02-19T00:06:29;10.20;99.90
41720;DHT22;27405;53.316;-6.294;2023-02-19T00:08:56;10.20;99.90
41720;DHT22;27405;53.316;-6.294;2023-02-19T00:11:27;10.20;99.90
41720;DHT22;27405;53.316;-6.294;2023-02-19T00:13:55;10.20;99.90
41720;DHT22;27405;53.316;-6.294;2023-02-19T00:16:30;10.20;99.90
41720;DHT22;27405;53.316;-6.294;2023-02-19T00:18:57;10.20;99.90
41720;DHT22;27405;53.316;-6.294;2023-02-19T00:21:24;10.20;99.90
41720;DHT22;27405;53.316;-6.294;2023-02-19T00:23:55;10.20;99.90
41720;DHT22;27405;53.316;-6.294;2023-02-19T00:26:21;10.20;99.90
41720;DHT22;27405;53.316;-6.294;2023-02-19T00:28:48;10.20;99.90
41720;DHT22;27405;53.316;-6.294;2023-02-19T00:31:19;10.10;99.90
41720;DHT22;27405;53.316;-6.294;2023-02-19T00:33:46;10.10;99.90
41720;DHT22;27405;53.316;-6.294;2023-02-19T00:36:13;10.10;99.90
41720;DHT22;27405;53.316;-6.294;2023-02-19T00:38:40;10.10;99.90
41720;DHT22;27405;53.316;-6.294;2023-02-19T00:41:06;10.10;99.90
41720;DHT22;27405;53.316;-6.294;2023-02-19T00:44:01;10.00;99.90
41720;DHT22;27405;53.316;-6.294;2023-02-19T00:46:41;10.00;99.90
41720;DHT22;27405;53.316;-6.294;2023-02-19T00:49:14;10.00;99.90
41720;DHT22;27405;53.316;-6.294;2023-02-19T00:51:40;10.00;99.90
41720;DHT22;27405;53.316;-6.294;2023-02-19T00:54:06;10.00;99.90
41720;DHT22;27405;53.316;-6.294;2023-02-19T00:56:32;9.90;99.90
41720;DHT22;27405;53.316;-6.294;2023-02-19T00:58:58;9.90;99.90
41720;DHT22;27405;53.316;-6.294;2023-02-19T01:01:23;9.90;99.90
41720;DHT22;27405;53.316;-6.294;2023-02-19T01:03:49;9.90;99.90
41720;DHT22;27405;53.316;-6.294;2023-02-19T01:06:17;9.90;99.90
41720;DHT22;27405;53.316;-6.294;2023-02-19T01:08:43;9.90;99.90
41720;DHT22;27405;53.316;-6.294;2023-02-19T01:11:10;9.90;99.90
41720;DHT22;27405;53.316;-6.294;2023-02-19T01:13:36;9.90;99.90
41720;DHT22;27405;53.316;-6.294;2023-02-19T01:16:09;9.90;99.90
41720;DHT22;27405;53.316;-6.294;2023-02-19T01:18:35;9.90;99.90
41720;DHT22;27405;53.316;-6.294;2023-02-19T01:21:10;9.90;99.90
41720;DHT22;27405;53.316;-6.294;2023-02-19T01:23:36;9.90;99.90
41720;DHT22;27405;53.316;-6.294;2023-02-19T01:26:06;9.90;99.90
41720;DHT22;27405;53.316;-6.294;2023-02-19T01:28:33;9.90;99.90
41720;DHT22;27405;53.316;-6.294;2023-02-19T01:31:06;9.80;99.90
41720;DHT22;27405;53.316;-6.294;2023-02-19T01:33:32;9.80;99.90
41720;DHT22;27405;53.316;-6.294;2023-02-19T01:35:58;9.80;99.90
41720;DHT22;27405;53.316;-6.294;2023-02-19T01:38:24;9.80;99.90
41720;DHT22;27405;53.316;-6.294;2023-02-19T01:41:01;9.80;99.90
41720;DHT22;27405;53.316;-6.294;2023-02-19T01:43:27;9.70;99.90
41720;DHT22;27405;53.316;-6.294;2023-02-19T01:45:54;9.70;99.90
41720;DHT22;27405;53.316;-6.294;2023-02-19T01:50:54;9.70;99.90
41720;DHT22;27405;53.316;-6.294;2023-02-19T01:53:24;9.70;99.90
41720;DHT22;27405;53.316;-6.294;2023-02-19T01:55:54;9.70;99.90
41720;DHT22;27405;53.316;-6.294;2023-02-19T01:58:21;9.70;99.90
41720;DHT22;27405;53.316;-6.294;2023-02-19T02:00:47;9.70;99.90
41720;DHT22;27405;53.316;-6.294;2023-02-19T02:03:13;9.70;99.90
41720;DHT22;27405;53.316;-6.294;2023-02-19T02:06:03;9.70;99.90
41720;DHT22;27405;53.316;-6.294;2023-02-19T02:08:32;9.60;99.90
41720;DHT22;27405;53.316;-6.294;2023-02-19T02:11:17;9.70;99.90
41720;DHT22;27405;53.316;-6.294;2023-02-19T02:13:43;9.70;99.90
41720;DHT22;27405;53.316;-6.294;2023-02-19T02:19:01;9.60;99.90
41720;DHT22;27405;53.316;-6.294;2023-02-19T02:24:45;9.60;99.90
41720;DHT22;27405;53.316;-6.294;2023-02-19T02:30:11;9.50;99.90
41720;DHT22;27405;53.316;-6.294;2023-02-19T02:35:35;9.40;99.90
41720;DHT22;27405;53.316;-6.294;2023-02-19T02:38:06;9.40;99.90
41720;DHT22;27405;53.316;-6.294;2023-02-19T02:40:33;9.40;99.90
41720;DHT22;27405;53.316;-6.294;2023-02-19T02:42:59;9.40;99.90
41720;DHT22;27405;53.316;-6.294;2023-02-19T02:45:30;9.40;99.90
41720;DHT22;27405;53.316;-6.294;2023-02-19T02:50:41;9.30;99.90
41720;DHT22;27405;53.316;-6.294;2023-02-19T02:53:12;9.30;99.90
41720;DHT22;27405;53.316;-6.294;2023-02-19T02:55:57;9.30;99.90
41720;DHT22;27405;53.316;-6.294;2023-02-19T02:58:27;9.30;99.90
41720;DHT22;27405;53.316;-6.294;2023-02-19T03:00:59;9.30;99.90
41720;DHT22;27405;53.316;-6.294;2023-02-19T03:03:49;9.30;99.90
41720;DHT22;27405;53.316;-6.294;2023-02-19T03:06:16;9.30;99.90
41720;DHT22;27405;53.316;-6.294;2023-02-19T03:11:19;9.30;99.90
41720;DHT22;27405;53.316;-6.294;2023-02-19T03:14:08;9.20;99.90
41720;DHT22;27405;53.316;-6.294;2023-02-19T03:16:59;9.30;99.90
41720;DHT22;27405;53.316;-6.294;2023-02-19T03:19:49;9.20;99.90
41720;DHT22;27405;53.316;-6.294;2023-02-19T03:22:24;9.20;99.90
41720;DHT22;27405;53.316;-6.294;2023-02-19T03:24:58;9.20;99.90
41720;DHT22;27405;53.316;-6.294;2023-02-19T03:27:45;9.20;99.90
41720;DHT22;27405;53.316;-6.294;2023-02-19T03:30:21;9.20;99.90
41720;DHT22;27405;53.316;-6.294;2023-02-19T03:33:11;9.10;99.90
41720;DHT22;27405;53.316;-6.294;2023-02-19T03:35:41;9.10;99.90
41720;DHT22;27405;53.316;-6.294;2023-02-19T03:38:12;9.10;99.90
41720;DHT22;27405;53.316;-6.294;2023-02-19T03:43:25;9.00;99.90
41720;DHT22;27405;53.316;-6.294;2023-02-19T03:46:08;9.00;99.90
41720;DHT22;27405;53.316;-6.294;2023-02-19T03:48:40;9.10;99.90
41720;DHT22;27405;53.316;-6.294;2023-02-19T03:51:31;9.10;99.90
41720;DHT22;27405;53.316;-6.294;2023-02-19T03:54:10;9.10;99.90
41720;DHT22;27405;53.316;-6.294;2023-02-19T03:56:52;9.10;99.90
41720;DHT22;27405;53.316;-6.294;2023-02-19T03:59:36;9.20;99.90
41720;DHT22;27405;53.316;-6.294;2023-02-19T04:02:13;9.20;99.90
41720;DHT22;27405;53.316;-6.294;2023-02-19T04:04:50;9.20;99.90
41720;DHT22;27405;53.316;-6.294;2023-02-19T04:07:17;9.20;99.90
41720;DHT22;27405;53.316;-6.294;2023-02-19T04:09:46;9.20;99.90
41720;DHT22;27405;53.316;-6.294;2023-02-19T04:12:13;9.20;99.90
41720;DHT22;27405;53.316;-6.294;2023-02-19T04:14:51;9.30;99.90
41720;DHT22;27405;53.316;-6.294;2023-02-19T04:17:34;9.30;99.90
41720;DHT22;27405;53.316;-6.294;2023-02-19T04:20:04;9.30;99.90
41720;DHT22;27405;53.316;-6.294;2023-02-19T04:22:32;9.40;99.90
41720;DHT22;27405;53.316;-6.294;2023-02-19T04:24:58;9.40;99.90
41720;DHT22;27405;53.316;-6.294;2023-02-19T04:27:25;9.30;99.90
41720;DHT22;27405;53.316;-6.294;2023-02-19T04:29:51;9.40;99.90
41720;DHT22;27405;53.316;-6.294;2023-02-19T04:32:16;9.40;99.90
41720;DHT22;27405;53.316;-6.294;2023-02-19T04:34:42;9.30;99.90
41720;DHT22;27405;53.316;-6.294;2023-02-19T04:37:08;9.40;99.90
41720;DHT22;27405;53.316;-6.294;2023-02-19T04:39:34;9.40;99.90
41720;DHT22;27405;53.316;-6.294;2023-02-19T04:41:59;9.40;99.90
41720;DHT22;27405;53.316;-6.294;2023-02-19T04:44:25;9.40;99.90
41720;DHT22;27405;53.316;-6.294;2023-02-19T04:46:50;9.40;99.90
41720;DHT22;27405;53.316;-6.294;2023-02-19T04:49:16;9.40;99.90
41720;DHT22;27405;53.316;-6.294;2023-02-19T04:51:42;9.50;99.90
41720;DHT22;27405;53.316;-6.294;2023-02-19T04:54:07;9.50;99.90
41720;DHT22;27405;53.316;-6.294;2023-02-19T04:56:33;9.50;99.90
41720;DHT22;27405;53.316;-6.294;2023-02-19T04:58:59;9.50;99.90
41720;DHT22;27405;53.316;-6.294;2023-02-19T05:01:25;9.50;99.90
41720;DHT22;27405;53.316;-6.294;2023-02-19T05:03:51;9.50;99.90
41720;DHT22;27405;53.316;-6.294;2023-02-19T05:06:16;9.50;99.90
41720;DHT22;27405;53.316;-6.294;2023-02-19T05:08:42;9.50;99.90
41720;DHT22;27405;53.316;-6.294;2023-02-19T05:11:10;9.50;99.90
41720;DHT22;27405;53.316;-6.294;2023-02-19T05:13:36;9.50;99.90
41720;DHT22;27405;53.316;-6.294;2023-02-19T05:16:05;9.40;99.90
41720;DHT22;27405;53.316;-6.294;2023-02-19T05:18:32;9.40;99.90
41720;DHT22;27405;53.316;-6.294;2023-02-19T05:20:59;9.40;99.90
41720;DHT22;27405;53.316;-6.294;2023-02-19T05:23:25;9.40;99.90
41720;DHT22;27405;53.316;-6.294;2023-02-19T05:25:52;9.30;99.90
41720;DHT22;27405;53.316;-6.294;2023-02-19T05:28:18;9.30;99.90
41720;DHT22;27405;53.316;-6.294;2023-02-19T05:30:51;9.30;99.90
41720;DHT22;27405;53.316;-6.294;2023-02-19T05:33:18;9.40;99.90
41720;DHT22;27405;53.316;-6.294;2023-02-19T05:35:50;9.40;99.90
41720;DHT22;27405;53.316;-6.294;2023-02-19T05:38:17;9.40;99.90
41720;DHT22;27405;53.316;-6.294;2023-02-19T05:40:43;9.40;99.90
41720;DHT22;27405;53.316;-6.294;2023-02-19T05:43:10;9.40;99.90
41720;DHT22;27405;53.316;-6.294;2023-02-19T05:45:36;9.40;99.90
41720;DHT22;27405;53.316;-6.294;2023-02-19T05:48:03;9.40;99.90
41720;DHT22;27405;53.316;-6.294;2023-02-19T05:50:30;9.40;99.90
41720;DHT22;27405;53.316;-6.294;2023-02-19T05:53:02;9.30;99.90
41720;DHT22;27405;53.316;-6.294;2023-02-19T05:55:32;9.30;99.90
41720;DHT22;27405;53.316;-6.294;2023-02-19T05:57:58;9.30;99.90
41720;DHT22;27405;53.316;-6.294;2023-02-19T06:00:24;9.30;99.90
41720;DHT22;27405;53.316;-6.294;2023-02-19T06:02:52;9.30;99.90
41720;DHT22;27405;53.316;-6.294;2023-02-19T06:05:17;9.30;99.90
41720;DHT22;27405;53.316;-6.294;2023-02-19T06:07:43;9.30;99.90
41720;DHT22;27405;53.316;-6.294;2023-02-19T06:10:10;9.30;99.90
41720;DHT22;27405;53.316;-6.294;2023-02-19T06:12:37;9.20;99.90
41720;DHT22;27405;53.316;-6.294;2023-02-19T06:15:04;9.30;99.90
41720;DHT22;27405;53.316;-6.294;2023-02-19T06:17:31;9.20;99.90
41720;DHT22;27405;53.316;-6.294;2023-02-19T06:19:56;9.20;99.90
41720;DHT22;27405;53.316;-6.294;2023-02-19T06:22:22;9.20;99.90
41720;DHT22;27405;53.316;-6.294;2023-02-19T06:24:48;9.20;99.90
41720;DHT22;27405;53.316;-6.294;2023-02-19T06:27:13;9.20;99.90
41720;DHT22;27405;53.316;-6.294;2023-02-19T06:29:39;9.10;99.90
41720;DHT22;27405;53.316;-6.294;2023-02-19T06:32:05;9.10;99.90
41720;DHT22;27405;53.316;-6.294;2023-02-19T06:34:32;9.10;99.90
41720;DHT22;27405;53.316;-6.294;2023-02-19T06:36:58;9.10;99.90
41720;DHT22;27405;53.316;-6.294;2023-02-19T06:39:24;9.00;99.90
41720;DHT22;27405;53.316;-6.294;2023-02-19T06:41:50;9.00;99.90
41720;DHT22;27405;53.316;-6.294;2023-02-19T06:44:16;8.90;99.90
41720;DHT22;27405;53.316;-6.294;2023-02-19T06:46:42;8.90;99.90
41720;DHT22;27405;53.316;-6.294;2023-02-19T06:49:07;8.90;99.90
41720;DHT22;27405;53.316;-6.294;2023-02-19T06:51:33;8.90;99.90
41720;DHT22;27405;53.316;-6.294;2023-02-19T06:53:59;8.90;99.90
41720;DHT22;27405;53.316;-6.294;2023-02-19T06:56:33;8.90;99.90
41720;DHT22;27405;53.316;-6.294;2023-02-19T06:59:01;8.90;99.90
41720;DHT22;27405;53.316;-6.294;2023-02-19T07:01:29;8.90;99.90
41720;DHT22;27405;53.316;-6.294;2023-02-19T07:03:55;8.90;99.90
41720;DHT22;27405;53.316;-6.294;2023-02-19T07:06:22;8.90;99.90
41720;DHT22;27405;53.316;-6.294;2023-02-19T07:08:49;8.80;99.90
41720;DHT22;27405;53.316;-6.294;2023-02-19T07:11:15;8.90;99.90
41720;DHT22;27405;53.316;-6.294;2023-02-19T07:13:41;8.80;99.90
41720;DHT22;27405;53.316;-6.294;2023-02-19T07:16:08;8.80;99.90
41720;DHT22;27405;53.316;-6.294;2023-02-19T07:18:36;8.80;99.90
41720;DHT22;27405;53.316;-6.294;2023-02-19T07:23:28;8.80;99.90
41720;DHT22;27405;53.316;-6.294;2023-02-19T07:25:54;8.80;99.90
41720;DHT22;27405;53.316;-6.294;2023-02-19T07:28:19;8.90;99.90
41720;DHT22;27405;53.316;-6.294;2023-02-19T07:30:45;8.90;99.90
41720;DHT22;27405;53.316;-6.294;2023-02-19T07:33:11;8.90;99.90
41720;DHT22;27405;53.316;-6.294;2023-02-19T07:35:36;8.90;99.90
41720;DHT22;27405;53.316;-6.294;2023-02-19T07:38:02;8.90;99.90
41720;DHT22;27405;53.316;-6.294;2023-02-19T07:40:28;8.90;99.90
41720;DHT22;27405;53.316;-6.294;2023-02-19T07:42:53;8.90;99.90
41720;DHT22;27405;53.316;-6.294;2023-02-19T07:45:19;9.00;99.90
41720;DHT22;27405;53.316;-6.294;2023-02-19T07:47:45;9.00;99.90
41720;DHT22;27405;53.316;-6.294;2023-02-19T07:50:10;9.00;99.90
41720;DHT22;27405;53.316;-6.294;2023-02-19T07:52:36;9.00;99.90
41720;DHT22;27405;53.316;-6.294;2023-02-19T07:55:02;8.90;99.90
41720;DHT22;27405;53.316;-6.294;2023-02-19T07:57:27;8.90;99.90
41720;DHT22;27405;53.316;-6.294;2023-02-19T07:59:54;8.90;99.90
41720;DHT22;27405;53.316;-6.294;2023-02-19T08:02:19;8.90;99.90
41720;DHT22;27405;53.316;-6.294;2023-02-19T08:05:14;9.00;99.90
41720;DHT22;27405;53.316;-6.294;2023-02-19T08:07:40;8.90;99.90
41720;DHT22;27405;53.316;-6.294;2023-02-19T08:10:06;8.90;99.90
41720;DHT22;27405;53.316;-6.294;2023-02-19T08:12:57;9.00;99.90
41720;DHT22;27405;53.316;-6.294;2023-02-19T08:15:42;9.00;99.90
41720;DHT22;27405;53.316;-6.294;2023-02-19T08:18:09;8.90;99.90
41720;DHT22;27405;53.316;-6.294;2023-02-19T08:20:35;9.00;99.90
41720;DHT22;27405;53.316;-6.294;2023-02-19T08:23:01;9.00;99.90
41720;DHT22;27405;53.316;-6.294;2023-02-19T08:25:27;9.00;99.90
41720;DHT22;27405;53.316;-6.294;2023-02-19T08:27:53;9.10;99.90
41720;DHT22;27405;53.316;-6.294;2023-02-19T08:30:18;9.10;99.90
41720;DHT22;27405;53.316;-6.294;2023-02-19T08:32:44;9.10;99.90
41720;DHT22;27405;53.316;-6.294;2023-02-19T08:35:10;9.10;99.90
41720;DHT22;27405;53.316;-6.294;2023-02-19T08:37:35;9.20;99.90
41720;DHT22;27405;53.316;-6.294;2023-02-19T08:40:01;9.20;99.90
41720;DHT22;27405;53.316;-6.294;2023-02-19T08:42:29;9.10;99.90
41720;DHT22;27405;53.316;-6.294;2023-02-19T08:44:55;9.10;99.90
41720;DHT22;27405;53.316;-6.294;2023-02-19T08:47:21;9.20;99.90
41720;DHT22;27405;53.316;-6.294;2023-02-19T08:49:46;9.20;99.90
41720;DHT22;27405;53.316;-6.294;2023-02-19T08:52:12;9.20;99.90
41720;DHT22;27405;53.316;-6.294;2023-02-19T08:54:38;9.20;99.90
41720;DHT22;27405;53.316;-6.294;2023-02-19T08:57:03;9.20;99.90
41720;DHT22;27405;53.316;-6.294;2023-02-19T08:59:30;9.30;99.90
41720;DHT22;27405;53.316;-6.294;2023-02-19T09:01:57;9.30;99.90
41720;DHT22;27405;53.316;-6.294;2023-02-19T09:04:23;9.30;99.90
41720;DHT22;27405;53.316;-6.294;2023-02-19T09:06:49;9.20;99.90
41720;DHT22;27405;53.316;-6.294;2023-02-19T09:09:14;9.30;99.90
41720;DHT22;27405;53.316;-6.294;2023-02-19T09:11:40;9.30;99.90
41720;DHT22;27405;53.316;-6.294;2023-02-19T09:14:06;9.30;99.90
41720;DHT22;27405;53.316;-6.294;2023-02-19T09:16:33;9.40;99.90
41720;DHT22;27405;53.316;-6.294;2023-02-19T09:18:59;9.40;99.90
41720;DHT22;27405;53.316;-6.294;2023-02-19T09:21:24;9.40;99.90
41720;DHT22;27405;53.316;-6.294;2023-02-19T09:23:50;9.40;99.90
41720;DHT22;27405;53.316;-6.294;2023-02-19T09:26:16;9.50;99.90
41720;DHT22;27405;53.316;-6.294;2023-02-19T09:28:42;9.50;99.90
41720;DHT22;27405;53.316;-6.294;2023-02-19T09:31:10;9.50;99.90
41720;DHT22;27405;53.316;-6.294;2023-02-19T09:33:36;9.50;99.90
41720;DHT22;27405;53.316;-6.294;2023-02-19T09:36:03;9.60;99.90
41720;DHT22;27405;53.316;-6.294;2023-02-19T09:38:29;9.60;99.90
41720;DHT22;27405;53.316;-6.294;2023-02-19T09:41:04;9.70;99.90
41720;DHT22;27405;53.316;-6.294;2023-02-19T09:43:31;9.70;99.90
41720;DHT22;27405;53.316;-6.294;2023-02-19T09:46:23;9.80;99.90
41720;DHT22;27405;53.316;-6.294;2023-02-19T09:48:48;9.90;99.90
41720;DHT22;27405;53.316;-6.294;2023-02-19T09:51:15;9.90;99.90
41720;DHT22;27405;53.316;-6.294;2023-02-19T09:53:43;10.00;99.90
41720;DHT22;27405;53.316;-6.294;2023-02-19T09:56:11;10.00;99.90
41720;DHT22;27405;53.316;-6.294;2023-02-19T09:58:47;10.00;99.90
41720;DHT22;27405;53.316;-6.294;2023-02-19T10:01:14;10.10;99.90
41720;DHT22;27405;53.316;-6.294;2023-02-19T10:03:43;10.10;99.90
41720;DHT22;27405;53.316;-6.294;2023-02-19T10:06:31;10.10;99.90
41720;DHT22;27405;53.316;-6.294;2023-02-19T10:09:24;10.20;99.90
41720;DHT22;27405;53.316;-6.294;2023-02-19T10:11:54;10.20;99.90
41720;DHT22;27405;53.316;-6.294;2023-02-19T10:14:21;10.30;99.90
41720;DHT22;27405;53.316;-6.294;2023-02-19T10:16:51;10.30;99.90
41720;DHT22;27405;53.316;-6.294;2023-02-19T10:19:17;10.40;99.90
41720;DHT22;27405;53.316;-6.294;2023-02-19T10:21:43;10.40;99.90
41720;DHT22;27405;53.316;-6.294;2023-02-19T10:24:20;10.30;99.90
41720;DHT22;27405;53.316;-6.294;2023-02-19T10:26:49;10.40;99.90
41720;DHT22;27405;53.316;-6.294;2023-02-19T10:29:14;10.40;99.90
41720;DHT22;27405;53.316;-6.294;2023-02-19T10:31:40;10.40;99.90
41720;DHT22;27405;53.316;-6.294;2023-02-19T10:34:19;10.40;99.90
41720;DHT22;27405;53.316;-6.294;2023-02-19T10:36:48;10.60;99.90
41720;DHT22;27405;53.316;-6.294;2023-02-19T10:41:48;10.60;99.90
41720;DHT22;27405;53.316;-6.294;2023-02-19T10:44:18;10.60;99.90
41720;DHT22;27405;53.316;-6.294;2023-02-19T10:46:48;10.60;99.90
41720;DHT22;27405;53.316;-6.294;2023-02-19T10:49:36;10.60;99.90
41720;DHT22;27405;53.316;-6.294;2023-02-19T10:52:48;10.50;99.90
41720;DHT22;27405;53.316;-6.294;2023-02-19T10:55:32;10.60;99.90
41720;DHT22;27405;53.316;-6.294;2023-02-19T10:58:23;10.60;99.90
41720;DHT22;27405;53.316;-6.294;2023-02-19T11:01:13;10.60;99.90
41720;DHT22;27405;53.316;-6.294;2023-02-19T11:03:39;10.70;99.90
41720;DHT22;27405;53.316;-6.294;2023-02-19T11:06:07;10.70;99.90
41720;DHT22;27405;53.316;-6.294;2023-02-19T11:08:56;10.80;99.90
41720;DHT22;27405;53.316;-6.294;2023-02-19T11:11:29;10.80;99.90
41720;DHT22;27405;53.316;-6.294;2023-02-19T11:13:57;10.90;99.90
41720;DHT22;27405;53.316;-6.294;2023-02-19T11:16:39;10.90;99.90
41720;DHT22;27405;53.316;-6.294;2023-02-19T11:19:05;10.90;99.90
41720;DHT22;27405;53.316;-6.294;2023-02-19T11:21:43;10.90;99.90
41720;DHT22;27405;53.316;-6.294;2023-02-19T11:24:31;11.00;99.90
41720;DHT22;27405;53.316;-6.294;2023-02-19T11:26:59;11.00;99.90
41720;DHT22;27405;53.316;-6.294;2023-02-19T11:29:25;11.00;99.90
41720;DHT22;27405;53.316;-6.294;2023-02-19T11:31:54;11.00;99.90
41720;DHT22;27405;53.316;-6.294;2023-02-19T11:37:10;11.00;99.90
41720;DHT22;27405;53.316;-6.294;2023-02-19T11:39:36;11.00;99.90
41720;DHT22;27405;53.316;-6.294;2023-02-19T11:47:42;11.10;99.90
41720;DHT22;27405;53.316;-6.294;2023-02-19T11:50:35;11.20;99.90
41720;DHT22;27405;53.316;-6.294;2023-02-19T11:53:33;11.40;99.90
41720;DHT22;27405;53.316;-6.294;2023-02-19T11:58:50;11.70;99.90
41720;DHT22;27405;53.316;-6.294;2023-02-19T12:07:35;12.10;99.90
41720;DHT22;27405;53.316;-6.294;2023-02-19T12:15:25;12.20;99.90
41720;DHT22;27405;53.316;-6.294;2023-02-19T12:24:10;12.20;99.90
41720;DHT22;27405;53.316;-6.294;2023-02-19T12:27:04;12.10;99.90
41720;DHT22;27405;53.316;-6.294;2023-02-19T12:51:05;12.00;99.90
41720;DHT22;27405;53.316;-6.294;2023-02-19T12:53:51;12.10;99.90
41720;DHT22;27405;53.316;-6.294;2023-02-19T12:56:39;12.00;99.90
41720;DHT22;27405;53.316;-6.294;2023-02-19T12:59:13;11.90;99.90
41720;DHT22;27405;53.316;-6.294;2023-02-19T13:04:56;11.90;99.90
41720;DHT22;27405;53.316;-6.294;2023-02-19T13:07:31;11.90;99.90
41720;DHT22;27405;53.316;-6.294;2023-02-19T13:10:26;12.00;99.90
41720;DHT22;27405;53.316;-6.294;2023-02-19T13:12:55;12.10;99.90
41720;DHT22;27405;53.316;-6.294;2023-02-19T13:15:43;12.10;99.90
41720;DHT22;27405;53.316;-6.294;2023-02-19T13:18:19;12.10;99.90
41720;DHT22;27405;53.316;-6.294;2023-02-19T13:20:47;12.30;99.90
41720;DHT22;27405;53.316;-6.294;2023-02-19T13:23:40;12.40;99.90
41720;DHT22;27405;53.316;-6.294;2023-02-19T13:27:06;12.60;99.90
41720;DHT22;27405;53.316;-6.294;2023-02-19T13:38:22;12.70;99.90
41720;DHT22;27405;53.316;-6.294;2023-02-19T13:40:56;12.70;99.90
41720;DHT22;27405;53.316;-6.294;2023-02-19T13:45:59;12.80;99.90
41720;DHT22;27405;53.316;-6.294;2023-02-19T13:48:29;12.70;99.90
41720;DHT22;27405;53.316;-6.294;2023-02-19T14:04:24;12.70;99.90
41720;DHT22;27405;53.316;-6.294;2023-02-19T14:20:00;12.60;99.90
41720;DHT22;27405;53.316;-6.294;2023-02-19T14:25:27;12.50;99.90
41720;DHT22;27405;53.316;-6.294;2023-02-19T14:33:28;12.60;99.90
41720;DHT22;27405;53.316;-6.294;2023-02-19T14:41:38;12.60;99.90
41720;DHT22;27405;53.316;-6.294;2023-02-19T14:44:20;12.50;99.90
41720;DHT22;27405;53.316;-6.294;2023-02-19T14:46:49;12.50;99.90
41720;DHT22;27405;53.316;-6.294;2023-02-19T14:49:31;12.40;99.90
41720;DHT22;27405;53.316;-6.294;2023-02-19T14:52:05;12.50;99.90
41720;DHT22;27405;53.316;-6.294;2023-02-19T14:57:18;12.60;99.90
41720;DHT22;27405;53.316;-6.294;2023-02-19T14:59:55;12.60;99.90
41720;DHT22;27405;53.316;-6.294;2023-02-19T15:02:23;12.70;99.90
41720;DHT22;27405;53.316;-6.294;2023-02-19T15:04:51;12.70;99.90
41720;DHT22;27405;53.316;-6.294;2023-02-19T15:07:24;12.80;99.90
41720;DHT22;27405;53.316;-6.294;2023-02-19T15:09:53;12.80;99.90
41720;DHT22;27405;53.316;-6.294;2023-02-19T15:12:24;12.80;99.90
41720;DHT22;27405;53.316;-6.294;2023-02-19T15:14:53;12.80;99.90
41720;DHT22;27405;53.316;-6.294;2023-02-19T15:17:41;12.80;99.90
41720;DHT22;27405;53.316;-6.294;2023-02-19T15:20:14;12.80;99.90
41720;DHT22;27405;53.316;-6.294;2023-02-19T15:22:41;12.90;99.90
41720;DHT22;27405;53.316;-6.294;2023-02-19T15:25:10;12.80;99.90
41720;DHT22;27405;53.316;-6.294;2023-02-19T15:27:39;12.90;99.90
41720;DHT22;27405;53.316;-6.294;2023-02-19T15:30:23;12.90;99.90
41720;DHT22;27405;53.316;-6.294;2023-02-19T15:32:53;12.90;99.90
41720;DHT22;27405;53.316;-6.294;2023-02-19T15:35:20;12.90;99.90
41720;DHT22;27405;53.316;-6.294;2023-02-19T15:37:47;13.00;99.90
41720;DHT22;27405;53.316;-6.294;2023-02-19T15:40:14;13.10;99.90
41720;DHT22;27405;53.316;-6.294;2023-02-19T15:42:43;13.20;99.90
41720;DHT22;27405;53.316;-6.294;2023-02-19T15:45:21;13.30;99.90
41720;DHT22;27405;53.316;-6.294;2023-02-19T15:47:56;13.40;99.90
41720;DHT22;27405;53.316;-6.294;2023-02-19T15:50:27;13.50;99.90
41720;DHT22;27405;53.316;-6.294;2023-02-19T15:56:19;13.60;99.90
41720;DHT22;27405;53.316;-6.294;2023-02-19T16:01:32;13.70;99.90
41720;DHT22;27405;53.316;-6.294;2023-02-19T16:03:59;13.70;99.90
41720;DHT22;27405;53.316;-6.294;2023-02-19T16:06:26;13.80;99.90
41720;DHT22;27405;53.316;-6.294;2023-02-19T16:09:18;13.80;99.90
41720;DHT22;27405;53.316;-6.294;2023-02-19T16:11:52;13.90;99.90
41720;DHT22;27405;53.316;-6.294;2023-02-19T16:17:19;13.80;99.90
41720;DHT22;27405;53.316;-6.294;2023-02-19T16:19:59;13.60;99.90
41720;DHT22;27405;53.316;-6.294;2023-02-19T16:22:31;13.70;99.90
41720;DHT22;27405;53.316;-6.294;2023-02-19T16:25:04;13.60;99.90
41720;DHT22;27405;53.316;-6.294;2023-02-19T16:27:38;13.60;99.90
41720;DHT22;27405;53.316;-6.294;2023-02-19T16:32:41;13.50;99.90
41720;DHT22;27405;53.316;-6.294;2023-02-19T16:35:34;13.50;99.90
41720;DHT22;27405;53.316;-6.294;2023-02-19T16:38:00;13.50;99.90
41720;DHT22;27405;53.316;-6.294;2023-02-19T16:43:27;13.40;99.90
41720;DHT22;27405;53.316;-6.294;2023-02-19T16:45:55;13.30;99.90
41720;DHT22;27405;53.316;-6.294;2023-02-19T16:48:21;13.30;99.90
41720;DHT22;27405;53.316;-6.294;2023-02-19T16:50:47;13.20;99.90
41720;DHT22;27405;53.316;-6.294;2023-02-19T16:53:19;13.10;99.90
41720;DHT22;27405;53.316;-6.294;2023-02-19T16:55:46;13.00;99.90
41720;DHT22;27405;53.316;-6.294;2023-02-19T16:58:11;13.00;99.90
41720;DHT22;27405;53.316;-6.294;2023-02-19T17:00:37;12.90;99.90
41720;DHT22;27405;53.316;-6.294;2023-02-19T17:03:23;12.90;99.90
41720;DHT22;27405;53.316;-6.294;2023-02-19T17:05:49;12.80;99.90
41720;DHT22;27405;53.316;-6.294;2023-02-19T17:08:38;12.80;99.90
41720;DHT22;27405;53.316;-6.294;2023-02-19T17:11:08;12.70;99.90
41720;DHT22;27405;53.316;-6.294;2023-02-19T17:13:34;12.70;99.90
41720;DHT22;27405;53.316;-6.294;2023-02-19T17:16:00;12.60;99.90
41720;DHT22;27405;53.316;-6.294;2023-02-19T17:18:26;12.60;99.90
41720;DHT22;27405;53.316;-6.294;2023-02-19T17:21:16;12.50;99.90
41720;DHT22;27405;53.316;-6.294;2023-02-19T17:23:42;12.50;99.90
41720;DHT22;27405;53.316;-6.294;2023-02-19T17:26:21;12.50;99.90
41720;DHT22;27405;53.316;-6.294;2023-02-19T17:28:47;12.50;99.90
41720;DHT22;27405;53.316;-6.294;2023-02-19T17:31:13;12.50;99.90
41720;DHT22;27405;53.316;-6.294;2023-02-19T17:33:39;12.50;99.90
41720;DHT22;27405;53.316;-6.294;2023-02-19T17:36:06;12.50;99.90
41720;DHT22;27405;53.316;-6.294;2023-02-19T17:38:32;12.50;99.90
41720;DHT22;27405;53.316;-6.294;2023-02-19T17:40:58;12.50;99.90
41720;DHT22;27405;53.316;-6.294;2023-02-19T17:43:23;12.50;99.90
41720;DHT22;27405;53.316;-6.294;2023-02-19T17:45:49;12.50;99.90
41720;DHT22;27405;53.316;-6.294;2023-02-19T17:48:15;12.60;99.90
41720;DHT22;27405;53.316;-6.294;2023-02-19T17:50:41;12.60;99.90
41720;DHT22;27405;53.316;-6.294;2023-02-19T17:53:07;12.60;99.90
41720;DHT22;27405;53.316;-6.294;2023-02-19T17:55:33;12.70;99.90
41720;DHT22;27405;53.316;-6.294;2023-02-19T17:58:00;12.70;99.90
41720;DHT22;27405;53.316;-6.294;2023-02-19T18:00:28;12.80;99.90
41720;DHT22;27405;53.316;-6.294;2023-02-19T18:02:54;12.80;99.90
41720;DHT22;27405;53.316;-6.294;2023-02-19T18:05:20;12.80;99.90
41720;DHT22;27405;53.316;-6.294;2023-02-19T18:07:47;12.80;99.90
41720;DHT22;27405;53.316;-6.294;2023-02-19T18:10:17;12.90;99.90
41720;DHT22;27405;53.316;-6.294;2023-02-19T18:12:43;12.90;99.90
41720;DHT22;27405;53.316;-6.294;2023-02-19T18:15:22;12.80;99.90
41720;DHT22;27405;53.316;-6.294;2023-02-19T18:17:48;12.80;99.90